Time;durP1;ratioP1;P1;durP2;ratioP2;P2;SDS_P1;SDS_P2;PMS_P1;PMS_P2;Temp;Humidity;BMP_temperature;BMP_pressure;BME280_temperature;BME280_humidity;BME280_pressure;Samples;Min_cycle;Max_cycle;Signal;HPM_P1;HPM_P2
2022/05/19 00:01:22;;;;;;;;;7.00;7.00;;;;;22.75;31.49;101855.67;110285;1259;18341;-47
2022/05/19 00:03:49;;;;;;;;;7.00;7.00;;;;;22.74;31.53;101859.06;110272;1259;23958;-47
2022/05/19 00:06:17;;;;;;;;;8.67;8.67;;;;;22.75;31.50;101858.77;110430;1259;19657;-47
2022/05/19 00:08:44;;;;;;;;;7.00;7.00;;;;;22.73;31.50;101850.70;110459;1259;18568;-50
2022/05/19 00:11:14;;;;;;;;;10.00;10.00;;;;;22.73;31.35;101851.69;110569;1259;19010;-48
2022/05/19 00:13:41;;;;;;;;;9.00;9.00;;;;;22.72;31.40;101848.07;110557;1258;19710;-48
2022/05/19 00:16:09;;;;;;;;;10.00;9.00;;;;;22.73;31.46;101849.13;110504;1259;20265;-49
2022/05/19 00:18:36;;;;;;;;;7.00;7.00;;;;;22.72;31.47;101846.33;110552;1259;19049;-48
2022/05/19 00:21:03;;;;;;;;;8.33;7.00;;;;;22.72;31.57;101845.27;110490;1259;19521;-47
2022/05/19 00:23:30;;;;;;;;;7.00;6.00;;;;;22.72;31.50;101843.25;110531;1259;18463;-48
2022/05/19 00:25:57;;;;;;;;;9.00;8.67;;;;;22.72;31.46;101845.09;110367;1258;23963;-47
2022/05/19 00:28:25;;;;;;;;;11.00;10.00;;;;;22.71;31.30;101842.92;110395;1259;19620;-51
2022/05/19 00:30:52;;;;;;;;;7.00;7.00;;;;;22.71;31.39;101843.11;110530;1259;18437;-48
2022/05/19 00:33:19;;;;;;;;;10.00;9.00;;;;;22.71;31.57;101844.55;110568;1259;18747;-47
2022/05/19 00:35:47;;;;;;;;;10.00;7.00;;;;;22.70;31.40;101842.08;110519;1259;20810;-49
2022/05/19 00:38:14;;;;;;;;;7.33;7.33;;;;;22.71;31.31;101839.88;110487;1259;18696;-48
2022/05/19 00:40:41;;;;;;;;;7.33;7.00;;;;;22.71;31.41;101844.36;110536;1258;18794;-48
2022/05/19 00:43:08;;;;;;;;;8.00;8.00;;;;;22.72;31.42;101847.98;110449;1261;19755;-47
2022/05/19 00:45:36;;;;;;;;;11.00;10.33;;;;;22.71;31.47;101844.02;110707;1257;20466;-49
2022/05/19 00:48:03;;;;;;;;;10.00;9.50;;;;;22.71;31.44;101841.14;110513;1259;20586;-47
2022/05/19 00:50:30;;;;;;;;;7.00;7.00;;;;;22.71;31.56;101845.84;110488;1259;19716;-48
2022/05/19 00:52:57;;;;;;;;;10.00;9.00;;;;;22.70;31.48;101849.58;110443;1258;18662;-48
2022/05/19 00:55:25;;;;;;;;;10.00;9.00;;;;;22.70;31.36;101843.46;110402;1258;18882;-45
2022/05/19 00:57:52;;;;;;;;;9.67;9.67;;;;;22.71;31.40;101847.18;110385;1259;19629;-48
2022/05/19 01:00:19;;;;;;;;;9.00;8.67;;;;;22.69;31.49;101843.66;110601;1259;20588;-50
2022/05/19 01:02:47;;;;;;;;;9.00;7.00;;;;;22.70;31.46;101838.64;110483;1259;18951;-49
2022/05/19 01:05:14;;;;;;;;;10.33;7.00;;;;;22.70;31.28;101842.98;110548;1258;19667;-48
2022/05/19 01:07:41;;;;;;;;;9.00;9.00;;;;;22.70;31.34;101842.09;110522;1259;18411;-48
2022/05/19 01:10:08;;;;;;;;;11.33;9.00;;;;;22.70;31.31;101841.27;110704;1258;21985;-47
2022/05/19 01:12:36;;;;;;;;;8.00;6.67;;;;;22.70;31.49;101840.17;110738;1258;19556;-48
2022/05/19 01:15:03;;;;;;;;;11.33;10.00;;;;;22.69;31.31;101836.63;110522;1259;18850;-49
2022/05/19 01:17:30;;;;;;;;;10.00;9.00;;;;;22.69;31.40;101830.78;110546;1259;18642;-48
2022/05/19 01:19:58;;;;;;;;;7.00;7.00;;;;;22.69;31.37;101831.70;110540;1259;22638;-49
2022/05/19 01:22:25;;;;;;;;;10.00;9.00;;;;;22.69;31.45;101828.05;110436;1259;18775;-46
2022/05/19 01:24:52;;;;;;;;;9.00;9.00;;;;;22.68;31.22;101828.50;110713;1258;19024;-47
2022/05/19 01:27:20;;;;;;;;;7.00;7.00;;;;;22.68;31.32;101821.55;110572;1259;20970;-50
2022/05/19 01:29:47;;;;;;;;;9.33;9.00;;;;;22.68;31.49;101817.39;110524;1259;22668;-49
2022/05/19 01:32:14;;;;;;;;;10.33;10.00;;;;;22.68;31.30;101821.94;110565;1258;18809;-48
2022/05/19 01:34:41;;;;;;;;;10.00;9.00;;;;;22.68;31.39;101820.67;110563;1259;19608;-47
2022/05/19 01:37:09;;;;;;;;;12.00;10.00;;;;;22.68;31.43;101817.77;110421;1259;18710;-51
2022/05/19 01:39:36;;;;;;;;;9.67;8.67;;;;;22.68;31.45;101815.06;110678;1258;22925;-48
2022/05/19 01:42:03;;;;;;;;;9.33;9.00;;;;;22.67;31.48;101818.21;110474;1259;22293;-49
2022/05/19 01:44:30;;;;;;;;;9.33;8.33;;;;;22.67;31.28;101816.98;110506;1258;19121;-47
2022/05/19 01:46:58;;;;;;;;;9.33;8.33;;;;;22.66;31.32;101819.04;110552;1259;18985;-50
2022/05/19 01:49:26;;;;;;;;;9.00;9.00;;;;;22.67;31.39;101813.43;110491;1259;19711;-49
2022/05/19 01:51:53;;;;;;;;;10.67;8.67;;;;;22.68;31.33;101813.60;110514;1259;18466;-48
2022/05/19 01:54:20;;;;;;;;;12.33;9.67;;;;;22.66;31.33;101811.35;110529;1259;18871;-50
2022/05/19 01:56:47;;;;;;;;;9.00;9.00;;;;;22.67;31.27;101818.59;110547;1259;19578;-47
2022/05/19 01:59:14;;;;;;;;;10.00;9.50;;;;;22.67;31.20;101816.77;110569;1258;20136;-48
2022/05/19 02:01:42;;;;;;;;;9.00;8.67;;;;;22.66;31.28;101812.29;110492;1259;19030;-47
2022/05/19 02:04:10;;;;;;;;;9.00;8.50;;;;;22.66;31.40;101810.66;110482;1259;20888;-50
2022/05/19 02:06:37;;;;;;;;;9.00;8.00;;;;;22.65;31.35;101810.17;110592;1259;20032;-48
2022/05/19 02:09:04;;;;;;;;;12.00;9.33;;;;;22.65;31.25;101807.41;110521;1259;18841;-48
2022/05/19 02:11:31;;;;;;;;;12.00;10.00;;;;;22.65;31.43;101804.50;110539;1258;19840;-50
2022/05/19 02:13:59;;;;;;;;;11.33;9.33;;;;;22.66;31.24;101804.09;110480;1258;19404;-46
2022/05/19 02:16:27;;;;;;;;;9.00;8.50;;;;;22.66;31.35;101802.66;110501;1259;18772;-46
2022/05/19 02:18:55;;;;;;;;;8.67;8.67;;;;;22.67;31.41;101799.80;110520;1259;26153;-48
2022/05/19 02:21:22;;;;;;;;;8.67;8.67;;;;;22.67;31.30;101801.48;110583;1258;18740;-49
2022/05/19 02:23:49;;;;;;;;;14.00;11.00;;;;;22.66;31.34;101796.59;110564;1259;18766;-48
2022/05/19 02:26:16;;;;;;;;;8.00;8.00;;;;;22.66;31.23;101798.64;110522;1259;22091;-48
2022/05/19 02:28:44;;;;;;;;;10.00;10.00;;;;;22.67;31.38;101803.66;110546;1259;18750;-49
2022/05/19 02:31:11;;;;;;;;;10.00;9.00;;;;;22.66;31.33;101797.34;110425;1260;22135;-47
2022/05/19 02:33:38;;;;;;;;;10.33;10.00;;;;;22.68;31.27;101795.35;110548;1259;19623;-49
2022/05/19 02:36:05;;;;;;;;;10.00;9.00;;;;;22.68;31.37;101795.19;110441;1261;23043;-47
2022/05/19 02:38:33;;;;;;;;;9.00;9.00;;;;;22.69;31.21;101794.91;110441;1261;19175;-48
2022/05/19 02:41:00;;;;;;;;;9.33;9.33;;;;;22.69;31.32;101798.73;110451;1261;19466;-48
2022/05/19 02:43:28;;;;;;;;;9.00;8.00;;;;;22.70;31.47;101798.23;110456;1262;18516;-48
2022/05/19 02:45:56;;;;;;;;;11.00;9.50;;;;;22.70;31.35;101797.88;110474;1261;18711;-47
2022/05/19 02:48:23;;;;;;;;;10.33;7.33;;;;;22.71;31.52;101803.02;110488;1260;20059;-48
2022/05/19 02:50:50;;;;;;;;;13.00;11.00;;;;;22.70;31.37;101798.91;110459;1261;19004;-48
2022/05/19 02:53:18;;;;;;;;;10.00;9.00;;;;;22.70;31.39;101800.99;110496;1261;18878;-49
2022/05/19 02:55:45;;;;;;;;;10.00;9.67;;;;;22.70;31.50;101800.00;110543;1259;19574;-48
2022/05/19 02:58:12;;;;;;;;;10.00;9.00;;;;;22.70;31.44;101800.98;110459;1259;18753;-48
2022/05/19 03:00:39;;;;;;;;;10.00;9.33;;;;;22.69;31.66;101801.81;110577;1259;22440;-47
2022/05/19 03:03:07;;;;;;;;;11.00;10.00;;;;;22.69;31.46;101800.00;110522;1259;20122;-49
2022/05/19 03:05:34;;;;;;;;;10.50;10.00;;;;;22.68;31.81;101805.88;110527;1258;22698;-47
2022/05/19 03:08:01;;;;;;;;;10.00;9.33;;;;;22.69;31.68;101807.45;110492;1258;21450;-47
2022/05/19 03:10:29;;;;;;;;;11.00;11.00;;;;;22.70;31.54;101807.59;110439;1259;22884;-47
2022/05/19 03:12:56;;;;;;;;;10.67;10.00;;;;;22.69;31.58;101799.63;110416;1260;18766;-48
2022/05/19 03:15:23;;;;;;;;;10.00;9.00;;;;;22.69;31.65;101797.44;110468;1259;18780;-49
2022/05/19 03:17:51;;;;;;;;;10.33;10.00;;;;;22.68;31.65;101795.33;110476;1259;19661;-49
2022/05/19 03:20:18;;;;;;;;;9.50;9.50;;;;;22.68;31.73;101796.45;110496;1258;18670;-49
2022/05/19 03:22:45;;;;;;;;;11.00;10.67;;;;;22.69;31.70;101795.67;110459;1259;18833;-48
2022/05/19 03:25:13;;;;;;;;;9.33;7.67;;;;;22.68;31.60;101793.89;110438;1260;19666;-47
2022/05/19 03:27:40;;;;;;;;;9.67;9.67;;;;;22.68;31.63;101793.71;110530;1259;18690;-48
2022/05/19 03:30:07;;;;;;;;;14.00;10.00;;;;;22.69;31.68;101793.95;110396;1258;22989;-49
2022/05/19 03:32:34;;;;;;;;;10.67;10.00;;;;;22.69;31.76;101788.91;110526;1259;19453;-49
2022/05/19 03:35:02;;;;;;;;;13.00;12.67;;;;;22.69;31.62;101782.68;110510;1259;18733;-48
2022/05/19 03:37:29;;;;;;;;;7.00;7.00;;;;;22.68;31.71;101782.00;110471;1259;22223;-48
2022/05/19 03:39:56;;;;;;;;;11.00;10.33;;;;;22.68;31.66;101787.46;110497;1258;20011;-48
2022/05/19 03:42:24;;;;;;;;;10.67;10.00;;;;;22.69;31.67;101786.88;110586;1258;18582;-47
2022/05/19 03:44:51;;;;;;;;;10.00;10.00;;;;;22.70;31.63;101786.06;110522;1259;18792;-48
2022/05/19 03:47:19;;;;;;;;;10.00;10.00;;;;;22.70;31.59;101787.70;110517;1259;19470;-48
2022/05/19 03:49:46;;;;;;;;;13.67;11.00;;;;;22.69;31.64;101784.52;110473;1259;18762;-47
2022/05/19 03:52:13;;;;;;;;;11.50;10.00;;;;;22.69;31.58;101785.23;110394;1259;19094;-48
2022/05/19 03:54:40;;;;;;;;;10.00;10.00;;;;;22.69;31.52;101791.56;110547;1259;19555;-47
2022/05/19 03:57:08;;;;;;;;;9.67;9.67;;;;;22.70;31.65;101794.44;110463;1259;22938;-49
2022/05/19 03:59:35;;;;;;;;;12.67;12.00;;;;;22.70;31.54;101792.96;110501;1259;18838;-49
2022/05/19 04:02:02;;;;;;;;;11.00;10.00;;;;;22.69;31.69;101786.27;110463;1259;20252;-49
2022/05/19 04:04:30;;;;;;;;;13.33;10.00;;;;;22.69;31.67;101787.02;110489;1259;19033;-48
2022/05/19 04:06:57;;;;;;;;;10.50;10.50;;;;;22.69;31.67;101787.56;110451;1260;20358;-49
2022/05/19 04:09:25;;;;;;;;;11.00;11.00;;;;;22.70;31.59;101788.21;110470;1261;19607;-48
2022/05/19 04:11:52;;;;;;;;;10.00;10.00;;;;;22.69;31.54;101790.71;110449;1260;22075;-47
2022/05/19 04:14:21;;;;;;;;;10.33;10.33;;;;;22.69;31.47;101794.50;110441;1259;18971;-50
2022/05/19 04:16:52;;;;;;;;;13.00;11.33;;;;;22.69;31.42;101795.29;110467;1259;20444;-49
2022/05/19 04:19:20;;;;;;;;;14.00;13.00;;;;;22.70;31.52;101796.04;110477;1259;18713;-47
2022/05/19 04:21:47;;;;;;;;;15.00;13.33;;;;;22.68;31.59;101791.86;110513;1259;19755;-47
2022/05/19 04:24:14;;;;;;;;;14.00;12.00;;;;;22.71;31.48;101793.07;110542;1258;19617;-49
2022/05/19 04:26:41;;;;;;;;;11.00;10.00;;;;;22.71;31.25;101791.61;110548;1259;22797;-49
2022/05/19 04:29:09;;;;;;;;;10.67;10.67;;;;;22.71;31.43;101790.31;110475;1259;18825;-48
2022/05/19 04:31:36;;;;;;;;;12.67;10.67;;;;;22.71;31.44;101792.49;110452;1259;19787;-49
2022/05/19 04:34:05;;;;;;;;;13.67;11.00;;;;;22.70;31.40;101787.26;110428;1260;21823;-49
2022/05/19 04:36:32;;;;;;;;;13.67;13.00;;;;;22.71;31.44;101789.41;110534;1259;20210;-48
2022/05/19 04:38:59;;;;;;;;;11.00;10.00;;;;;22.71;31.32;101790.11;110478;1258;19975;-47
2022/05/19 04:41:26;;;;;;;;;15.00;13.33;;;;;22.72;31.37;101790.96;110504;1259;18876;-48
2022/05/19 04:43:54;;;;;;;;;12.00;10.00;;;;;22.71;31.45;101789.71;110484;1259;18785;-48
2022/05/19 04:46:21;;;;;;;;;13.00;13.00;;;;;22.72;31.51;101798.95;110462;1259;19547;-47
2022/05/19 04:48:48;;;;;;;;;12.00;11.33;;;;;22.72;31.45;101801.27;110493;1259;21885;-48
2022/05/19 04:51:15;;;;;;;;;14.00;11.33;;;;;22.73;31.48;101801.05;110475;1260;18793;-47
2022/05/19 04:53:43;;;;;;;;;11.00;11.00;;;;;22.73;31.47;101799.48;110473;1260;19530;-46
2022/05/19 04:56:10;;;;;;;;;14.33;13.00;;;;;22.75;31.34;101804.64;110462;1259;18640;-48
2022/05/19 04:58:37;;;;;;;;;13.00;13.00;;;;;22.76;31.41;101803.77;110503;1259;18726;-47
2022/05/19 05:01:04;;;;;;;;;14.33;13.33;;;;;22.77;31.41;101808.77;110488;1259;22290;-48
2022/05/19 05:03:32;;;;;;;;;13.67;11.00;;;;;22.82;31.74;101811.20;110586;1259;18697;-48
2022/05/19 05:05:59;;;;;;;;;13.67;12.33;;;;;22.88;32.06;101811.24;110577;1258;19013;-48
2022/05/19 05:08:26;;;;;;;;;13.00;13.00;;;;;22.93;32.29;101810.52;110475;1259;19605;-46
2022/05/19 05:10:53;;;;;;;;;18.00;14.67;;;;;22.86;32.06;101817.65;110620;1258;18822;-48
2022/05/19 05:13:20;;;;;;;;;15.00;14.33;;;;;22.70;30.12;101810.98;110452;1259;18914;-47
2022/05/19 05:15:48;;;;;;;;;15.67;14.33;;;;;22.53;28.90;101809.73;110552;1258;22874;-47
2022/05/19 05:18:15;;;;;;;;;14.67;14.67;;;;;22.39;28.12;101806.10;110433;1259;18729;-46
2022/05/19 05:20:42;;;;;;;;;17.00;15.00;;;;;22.29;27.83;101807.72;110369;1259;32525;-51
2022/05/19 05:23:09;;;;;;;;;18.33;16.00;;;;;22.16;27.32;101813.27;110488;1259;19588;-47
2022/05/19 05:25:37;;;;;;;;;18.00;15.50;;;;;22.05;27.19;101807.27;110497;1259;18890;-50
2022/05/19 05:28:04;;;;;;;;;19.00;17.00;;;;;21.94;27.48;101806.39;110483;1259;22443;-50
2022/05/19 05:30:31;;;;;;;;;20.00;17.00;;;;;21.88;27.47;101804.29;110438;1259;19777;-48
2022/05/19 05:32:58;;;;;;;;;15.00;14.67;;;;;21.83;27.37;101809.33;110496;1258;18711;-48
2022/05/19 05:35:26;;;;;;;;;16.50;16.00;;;;;21.74;27.69;101812.30;110450;1259;18876;-48
2022/05/19 05:37:53;;;;;;;;;18.00;17.00;;;;;21.71;27.76;101809.34;110444;1259;19138;-48
2022/05/19 05:40:20;;;;;;;;;15.67;14.33;;;;;21.72;27.84;101805.56;110739;1259;18738;-50
2022/05/19 05:42:47;;;;;;;;;18.00;16.00;;;;;21.75;27.57;101802.34;110613;1259;191059;-51
2022/05/19 05:45:15;;;;;;;;;17.00;16.00;;;;;21.81;28.05;101806.80;110489;1258;19492;-51
2022/05/19 05:47:42;;;;;;;;;13.67;13.00;;;;;21.93;27.82;101801.16;110451;1260;20564;-51
2022/05/19 05:50:09;;;;;;;;;16.50;13.50;;;;;22.00;27.77;101797.25;110434;1259;18945;-49
2022/05/19 05:52:36;;;;;;;;;12.00;12.00;;;;;22.05;27.95;101801.21;110408;1261;20083;-50
2022/05/19 05:55:04;;;;;;;;;15.33;14.00;;;;;22.12;27.98;101806.01;110421;1261;19608;-50
2022/05/19 05:57:31;;;;;;;;;13.33;12.00;;;;;22.16;28.52;101807.54;110524;1261;18808;-49
2022/05/19 05:59:59;;;;;;;;;12.00;12.00;;;;;22.25;28.84;101808.34;110448;1260;19457;-50
2022/05/19 06:02:26;;;;;;;;;18.67;14.67;;;;;22.26;28.70;101808.73;110470;1260;18653;-51
2022/05/19 06:04:54;;;;;;;;;14.00;13.00;;;;;22.25;28.45;101810.13;110500;1261;18780;-51
2022/05/19 06:07:21;;;;;;;;;12.33;12.00;;;;;22.25;28.76;101813.73;110427;1261;19658;-49
2022/05/19 06:09:49;;;;;;;;;14.00;12.00;;;;;22.29;29.08;101803.86;110492;1260;22753;-50
2022/05/19 06:12:17;;;;;;;;;13.00;12.00;;;;;22.34;28.83;101811.71;110421;1260;20062;-49
2022/05/19 06:14:44;;;;;;;;;11.33;10.33;;;;;22.36;28.92;101814.94;110444;1261;19473;-50
2022/05/19 06:17:11;;;;;;;;;14.00;13.00;;;;;22.37;28.70;101819.79;110414;1261;18792;-50
2022/05/19 06:19:39;;;;;;;;;12.00;12.00;;;;;22.37;28.40;101819.95;110446;1260;18957;-50
2022/05/19 06:22:06;;;;;;;;;13.00;13.00;;;;;22.33;27.95;101823.05;110515;1261;23096;-49
2022/05/19 06:24:33;;;;;;;;;10.00;9.67;;;;;22.41;28.24;101825.86;110490;1261;22657;-50
2022/05/19 06:27:01;;;;;;;;;12.33;10.67;;;;;22.48;28.36;101821.49;110468;1260;19114;-50
2022/05/19 06:29:28;;;;;;;;;16.50;12.50;;;;;22.55;28.52;101824.98;110493;1261;19495;-51
2022/05/19 06:31:55;;;;;;;;;9.50;8.50;;;;;22.63;28.90;101818.42;110464;1262;18844;-48
2022/05/19 06:34:22;;;;;;;;;10.00;9.33;;;;;22.70;28.70;101818.48;110474;1262;18907;-52
2022/05/19 06:36:50;;;;;;;;;10.33;10.00;;;;;22.70;28.95;101816.58;110508;1261;19463;-50
2022/05/19 06:39:17;;;;;;;;;10.50;10.00;;;;;22.72;28.58;101820.61;110483;1260;18704;-49
2022/05/19 06:42:02;;;;;;;;;10.00;10.00;;;;;22.76;28.45;101822.02;110432;1261;18855;-49
2022/05/19 06:44:31;;;;;;;;;10.00;9.67;;;;;22.79;28.42;101824.34;110433;1262;19900;-50
2022/05/19 06:46:58;;;;;;;;;9.00;9.00;;;;;22.84;28.60;101817.70;110424;1260;18764;-48
2022/05/19 06:49:26;;;;;;;;;10.33;9.00;;;;;22.85;28.14;101818.77;110381;1261;18853;-47
2022/05/19 06:51:53;;;;;;;;;7.00;7.00;;;;;22.88;28.04;101813.27;110473;1260;20985;-54
2022/05/19 06:54:21;;;;;;;;;11.00;10.67;;;;;22.90;27.91;101803.38;110522;1261;18725;-49
2022/05/19 06:56:48;;;;;;;;;10.00;9.00;;;;;22.92;27.92;101795.86;110443;1261;26625;-50
2022/05/19 06:59:16;;;;;;;;;7.67;7.67;;;;;22.95;28.04;101788.62;110446;1260;22131;-48
2022/05/19 07:01:43;;;;;;;;;9.33;7.67;;;;;23.02;28.41;101788.03;110476;1261;18767;-49
2022/05/19 07:04:11;;;;;;;;;11.00;10.00;;;;;23.06;28.49;101785.76;110460;1261;18769;-48
2022/05/19 07:06:38;;;;;;;;;9.00;7.00;;;;;23.11;28.63;101788.08;110520;1260;23304;-49
2022/05/19 07:09:06;;;;;;;;;11.00;10.00;;;;;23.18;28.71;101786.06;110428;1261;18662;-53
2022/05/19 07:11:33;;;;;;;;;9.00;9.00;;;;;23.22;28.71;101782.77;110410;1260;20427;-48
2022/05/19 07:14:00;;;;;;;;;9.33;7.00;;;;;23.25;28.51;101782.41;110417;1261;28324;-52
2022/05/19 07:16:28;;;;;;;;;7.00;7.00;;;;;23.25;28.42;101778.65;110452;1261;18517;-49
2022/05/19 07:20:43;;;;;;;;;9.33;7.00;;;;;23.27;28.41;101777.49;110491;1260;18757;-50
2022/05/19 07:21:44;;;;;;;;;8.33;7.00;;;;;23.30;28.10;101776.60;110509;1261;19814;-51
2022/05/19 07:24:15;;;;;;;;;10.00;9.00;;;;;23.18;28.14;101775.52;110454;1261;18352;-49
2022/05/19 07:26:43;;;;;;;;;10.00;10.00;;;;;23.17;27.69;101769.77;110415;1261;22849;-48
2022/05/19 07:29:10;;;;;;;;;10.67;10.00;;;;;23.26;27.20;101770.05;110450;1261;22677;-50
2022/05/19 07:31:37;;;;;;;;;10.00;10.00;;;;;23.37;27.54;101767.06;110466;1260;18706;-50
2022/05/19 07:34:04;;;;;;;;;12.00;10.50;;;;;23.42;27.71;101770.86;110482;1261;19036;-54
2022/05/19 07:36:33;;;;;;;;;9.00;9.00;;;;;23.45;28.12;101768.14;110489;1261;19613;-50
2022/05/19 07:39:00;;;;;;;;;9.67;8.33;;;;;23.47;28.49;101771.27;110391;1261;18861;-49
2022/05/19 07:41:28;;;;;;;;;9.00;7.00;;;;;23.45;28.54;101766.73;110483;1259;19069;-49
2022/05/19 07:43:55;;;;;;;;;8.00;8.00;;;;;23.46;29.18;101766.55;110403;1261;19529;-49
2022/05/19 07:46:23;;;;;;;;;7.00;7.00;;;;;23.45;29.36;101767.07;110433;1259;18592;-48
2022/05/19 07:48:50;;;;;;;;;10.33;9.00;;;;;23.43;29.65;101768.20;110425;1261;18760;-49
2022/05/19 07:51:17;;;;;;;;;9.00;7.00;;;;;23.43;29.91;101765.81;110380;1260;19938;-48
2022/05/19 07:53:45;;;;;;;;;9.67;9.33;;;;;23.42;29.97;101765.73;110501;1262;18882;-50
2022/05/19 07:56:12;;;;;;;;;9.00;8.33;;;;;23.41;30.23;101757.96;110493;1261;18848;-51
2022/05/19 07:58:39;;;;;;;;;9.67;9.00;;;;;23.41;30.12;101758.75;110488;1261;19987;-49
2022/05/19 08:01:07;;;;;;;;;8.33;7.00;;;;;23.39;30.26;101753.70;110493;1259;19105;-49
2022/05/19 08:03:34;;;;;;;;;11.00;8.33;;;;;23.38;30.37;101746.89;110566;1262;19311;-50
2022/05/19 08:06:04;;;;;;;;;10.00;9.00;;;;;23.39;30.34;101748.20;110425;1261;19471;-50
2022/05/19 08:08:31;;;;;;;;;7.00;7.00;;;;;23.38;30.37;101744.46;110413;1261;19000;-50
2022/05/19 08:10:58;;;;;;;;;9.00;9.00;;;;;23.37;30.31;101740.77;110466;1261;18763;-51
2022/05/19 08:16:10;;;;;;;;;7.67;6.33;;;;;23.36;30.50;101734.09;110472;1261;19691;-49
2022/05/19 08:18:38;;;;;;;;;9.00;7.67;;;;;23.36;30.44;101733.45;110536;1261;18791;-50
2022/05/19 08:21:05;;;;;;;;;9.00;9.00;;;;;23.36;30.54;101733.03;110495;1261;19905;-50
2022/05/19 08:23:32;;;;;;;;;9.00;9.00;;;;;23.33;30.52;101729.14;110485;1261;18470;-51
2022/05/19 08:26:00;;;;;;;;;9.33;9.00;;;;;23.34;30.61;101730.53;110479;1261;18732;-50
2022/05/19 08:28:30;;;;;;;;;12.00;9.00;;;;;23.34;30.65;101728.73;110487;1260;19924;-50
2022/05/19 08:30:57;;;;;;;;;7.67;7.00;;;;;23.34;30.62;101727.39;110490;1261;22825;-49
2022/05/19 08:33:24;;;;;;;;;11.33;9.67;;;;;23.33;30.58;101721.85;110534;1261;18693;-51
2022/05/19 08:35:51;;;;;;;;;7.67;7.67;;;;;23.33;30.61;101720.80;110495;1262;21057;-54
2022/05/19 08:38:19;;;;;;;;;6.00;6.00;;;;;23.33;30.80;101712.99;110487;1261;18816;-50
2022/05/19 08:40:46;;;;;;;;;10.00;10.00;;;;;23.32;30.73;101708.52;110477;1261;18626;-50
2022/05/19 08:43:13;;;;;;;;;7.00;7.00;;;;;23.34;30.81;101703.41;110463;1261;22695;-48
2022/05/19 08:45:40;;;;;;;;;9.00;7.00;;;;;23.32;30.87;101699.77;110518;1261;18816;-48
2022/05/19 08:48:07;;;;;;;;;9.00;9.00;;;;;23.31;30.95;101696.00;110493;1260;18810;-48
2022/05/19 08:50:35;;;;;;;;;8.33;8.33;;;;;23.31;30.75;101691.68;110492;1261;19532;-50
2022/05/19 08:53:02;;;;;;;;;7.00;7.00;;;;;23.30;30.79;101693.02;110498;1260;18508;-47
2022/05/19 08:55:29;;;;;;;;;9.00;9.00;;;;;23.30;30.84;101689.25;110479;1260;21650;-48
2022/05/19 08:57:56;;;;;;;;;7.00;6.67;;;;;23.29;30.91;101688.81;110479;1261;19756;-53
2022/05/19 09:00:24;;;;;;;;;7.67;6.67;;;;;23.28;30.93;101682.73;110517;1260;18547;-50
2022/05/19 09:02:51;;;;;;;;;6.67;6.67;;;;;23.28;31.00;101686.39;110490;1261;18709;-50
2022/05/19 09:05:18;;;;;;;;;9.00;7.00;;;;;23.28;30.99;101685.39;110497;1259;19452;-49
2022/05/19 09:07:58;;;;;;;;;9.67;7.00;;;;;23.28;31.01;101683.41;110502;1259;19233;-54
2022/05/19 09:10:25;;;;;;;;;7.00;7.00;;;;;23.28;30.99;101678.19;110474;1259;18777;-48
2022/05/19 09:12:52;;;;;;;;;9.50;9.50;;;;;23.27;30.98;101672.58;110477;1260;19814;-52
2022/05/19 09:15:20;;;;;;;;;7.67;7.67;;;;;23.28;30.98;101670.70;110466;1261;18512;-48
2022/05/19 09:17:47;;;;;;;;;7.00;7.00;;;;;23.26;31.11;101664.01;110489;1261;21784;-52
2022/05/19 09:20:14;;;;;;;;;11.67;7.00;;;;;23.25;31.04;101657.47;110507;1260;20220;-47
2022/05/19 09:22:42;;;;;;;;;7.00;6.00;;;;;23.25;31.02;101655.33;110502;1261;18677;-47
2022/05/19 09:25:09;;;;;;;;;7.00;6.00;;;;;23.25;30.88;101648.65;110526;1261;18775;-48
2022/05/19 09:27:36;;;;;;;;;7.00;7.00;;;;;23.24;30.96;101647.95;110551;1261;19470;-51
2022/05/19 09:30:03;;;;;;;;;10.00;7.67;;;;;23.23;31.00;101646.11;110484;1261;18492;-50
2022/05/19 09:32:31;;;;;;;;;9.00;9.00;;;;;23.22;31.09;101634.11;110467;1261;18936;-49
2022/05/19 09:34:58;;;;;;;;;10.00;7.00;;;;;23.21;31.16;101631.52;110359;1261;22402;-54
2022/05/19 09:37:26;;;;;;;;;7.00;7.00;;;;;23.20;31.14;101624.17;110449;1260;18424;-49
2022/05/19 09:39:53;;;;;;;;;8.33;7.67;;;;;23.18;31.09;101619.04;110526;1261;22784;-50
2022/05/19 09:42:20;;;;;;;;;7.00;6.00;;;;;23.18;31.21;101618.49;110479;1259;19675;-50
2022/05/19 09:44:48;;;;;;;;;9.00;8.33;;;;;23.17;31.27;101612.95;110513;1261;20149;-50
2022/05/19 09:47:16;;;;;;;;;6.00;6.00;;;;;23.17;31.27;101612.75;110490;1261;18668;-49
2022/05/19 09:49:45;;;;;;;;;8.33;6.33;;;;;23.18;31.19;101605.75;110494;1259;19509;-51
2022/05/19 09:52:12;;;;;;;;;6.00;6.00;;;;;23.17;31.25;101603.07;110492;1259;18367;-50
2022/05/19 09:54:39;;;;;;;;;7.67;6.33;;;;;23.19;31.17;101603.67;110535;1261;18593;-51
2022/05/19 09:57:07;;;;;;;;;7.00;6.00;;;;;23.18;31.33;101597.52;110501;1261;19519;-48
2022/05/19 09:59:34;;;;;;;;;9.00;9.00;;;;;23.17;31.18;101597.48;110503;1261;18630;-51
2022/05/19 10:02:01;;;;;;;;;10.67;9.00;;;;;23.17;31.21;101597.87;110479;1259;20140;-51
2022/05/19 10:04:28;;;;;;;;;9.00;7.00;;;;;23.18;31.30;101597.88;110486;1261;19519;-50
2022/05/19 10:06:56;;;;;;;;;5.00;5.00;;;;;23.17;31.25;101589.12;110536;1260;18899;-49
2022/05/19 10:09:23;;;;;;;;;7.00;7.00;;;;;23.16;31.20;101582.08;110501;1261;18755;-49
2022/05/19 10:11:50;;;;;;;;;5.00;5.00;;;;;23.15;31.35;101579.96;110472;1261;19464;-49
2022/05/19 10:14:18;;;;;;;;;6.67;6.00;;;;;23.14;31.34;101576.83;110469;1260;18450;-49
2022/05/19 10:16:45;;;;;;;;;8.67;6.33;;;;;23.13;31.38;101576.73;110470;1261;18663;-50
2022/05/19 10:19:13;;;;;;;;;9.00;6.00;;;;;23.14;31.49;101575.77;110505;1261;19662;-50
2022/05/19 10:21:40;;;;;;;;;6.00;6.00;;;;;23.15;31.41;101575.66;110519;1261;18325;-50
2022/05/19 10:24:07;;;;;;;;;9.00;7.00;;;;;23.15;31.53;101572.35;110470;1261;18913;-49
2022/05/19 10:26:34;;;;;;;;;6.00;6.00;;;;;23.14;31.43;101569.80;110517;1260;19532;-50
2022/05/19 10:31:47;;;;;;;;;6.67;6.67;;;;;23.14;31.35;101559.13;110479;1259;19920;-50
2022/05/19 10:34:14;;;;;;;;;6.00;6.00;;;;;23.14;31.44;101556.09;110494;1261;20842;-52
2022/05/19 10:36:42;;;;;;;;;6.00;6.00;;;;;23.14;31.39;101550.41;110511;1261;18880;-49
2022/05/19 10:39:09;;;;;;;;;6.67;5.67;;;;;23.13;31.49;101546.85;110482;1261;18825;-48
2022/05/19 10:41:37;;;;;;;;;8.33;6.33;;;;;23.13;31.50;101543.40;110519;1259;19425;-50
2022/05/19 10:44:05;;;;;;;;;6.00;5.00;;;;;23.13;31.54;101540.89;110482;1262;18977;-50
2022/05/19 10:46:32;;;;;;;;;6.50;6.00;;;;;23.12;31.61;101540.20;110530;1261;18685;-49
2022/05/19 10:48:59;;;;;;;;;5.33;5.00;;;;;23.11;31.65;101529.95;110525;1261;19623;-52
2022/05/19 10:51:26;;;;;;;;;5.00;5.00;;;;;23.12;31.61;101528.07;110491;1261;18893;-49
2022/05/19 10:53:54;;;;;;;;;7.00;6.00;;;;;23.11;31.72;101521.20;110469;1260;18755;-50
2022/05/19 10:56:21;;;;;;;;;5.00;5.00;;;;;23.13;31.57;101522.68;110487;1261;19522;-49
2022/05/19 10:58:49;;;;;;;;;6.00;5.00;;;;;23.12;31.65;101518.39;110502;1260;18613;-52
2022/05/19 11:01:16;;;;;;;;;7.00;6.67;;;;;23.11;31.59;101515.56;110486;1261;22762;-51
2022/05/19 11:03:43;;;;;;;;;5.00;3.67;;;;;23.11;31.68;101512.04;110555;1262;19521;-50
2022/05/19 11:06:11;;;;;;;;;5.67;5.67;;;;;23.12;31.59;101511.21;110495;1260;18295;-49
2022/05/19 11:08:39;;;;;;;;;6.00;5.00;;;;;23.12;31.69;101501.91;110462;1260;19269;-51
2022/05/19 11:11:07;;;;;;;;;6.33;5.67;;;;;23.12;31.67;101498.51;110477;1260;19695;-49
2022/05/19 11:13:34;;;;;;;;;7.67;7.00;;;;;23.13;31.69;101501.35;110448;1262;18535;-49
2022/05/19 11:16:02;;;;;;;;;7.67;6.67;;;;;23.13;31.69;101507.67;110500;1261;22589;-50